13°C Temp
12°C Dewpoint
94% Humidity
Temperature
11 KM/H
7 MPH
6 KTS
310°
North West

Wind Speed
Mostly Cloudy
Conditions
Pressure 1009.92 (hPa) - 29.82 (in)
Visibility 1.9 (mi) - 3.0 (km)

Current Conditions
LIBP
Location 110(km)
Metar :LIBP 211550Z 31006KT 260V350 3000 -DZ BKN008 OVC010 13/12 Q1010
Tue 21st April 17:50 pm

Airport
  Metar Aviation API Data Provided by https://www.checkwx.com/ PHP scripts by weather34.com ©2020